Time;durP1;ratioP1;P1;durP2;ratioP2;P2;SDS_P1;SDS_P2;PMS_P1;PMS_P2;Temp;Humidity;BMP_temperature;BMP_pressure;BME280_temperature;BME280_humidity;BME280_pressure;Samples;Min_cycle;Max_cycle;Signal;HPM_P1;HPM_P2
2022/01/07 00:02:18;;;;;;;27.70;13.15;;;2.40;99.90;;;;;;5075395;28;20524;-95
2022/01/07 00:04:44;;;;;;;35.53;14.65;;;2.40;99.90;;;;;;5058544;28;20051;-94
2022/01/07 00:07:10;;;;;;;24.30;12.65;;;2.30;99.90;;;;;;5058569;28;20023;-94
2022/01/07 00:09:36;;;;;;;30.42;14.57;;;2.30;99.90;;;;;;5058715;28;20020;-95
2022/01/07 00:12:04;;;;;;;30.35;14.25;;;2.30;99.90;;;;;;5059248;28;20078;-94
2022/01/07 00:14:30;;;;;;;34.05;15.13;;;2.30;99.90;;;;;;5059018;28;20031;-94
2022/01/07 00:16:56;;;;;;;38.60;15.40;;;2.20;99.90;;;;;;5059293;28;20029;-93
2022/01/07 00:19:21;;;;;;;30.55;15.73;;;2.20;99.90;;;;;;5058292;28;20367;-92
2022/01/07 00:21:47;;;;;;;31.65;15.13;;;2.20;99.90;;;;;;5058661;28;20445;-95
2022/01/07 00:24:13;;;;;;;30.88;12.77;;;2.10;99.90;;;;;;5058048;28;20115;-95
2022/01/07 00:26:39;;;;;;;22.70;10.77;;;2.20;99.90;;;;;;5058393;28;20109;-96
2022/01/07 00:29:05;;;;;;;25.05;12.27;;;2.10;99.90;;;;;;5058338;28;20055;-95
2022/01/07 00:31:30;;;;;;;22.52;10.75;;;2.00;99.90;;;;;;5058085;28;20025;-95
2022/01/07 00:33:56;;;;;;;24.15;12.32;;;2.00;99.90;;;;;;5057988;28;20111;-94
2022/01/07 00:36:22;;;;;;;17.40;10.20;;;1.90;99.90;;;;;;5058024;28;20032;-93
2022/01/07 00:38:47;;;;;;;24.50;11.95;;;1.90;99.90;;;;;;5058838;28;20107;-94
2022/01/07 00:41:13;;;;;;;20.00;10.43;;;1.90;99.90;;;;;;5057963;28;20024;-94
2022/01/07 00:43:39;;;;;;;18.50;10.65;;;1.90;99.90;;;;;;5057618;28;20074;-95
2022/01/07 00:46:04;;;;;;;19.90;10.60;;;1.90;99.90;;;;;;5058702;28;20477;-92
2022/01/07 00:48:30;;;;;;;15.50;9.55;;;1.90;99.90;;;;;;5056834;28;20021;-92
2022/01/07 00:50:56;;;;;;;15.73;9.18;;;2.00;99.90;;;;;;5057918;28;20467;-94
2022/01/07 00:53:21;;;;;;;20.83;9.50;;;2.10;99.90;;;;;;5057783;28;20455;-92
2022/01/07 00:55:50;;;;;;;19.02;9.52;;;2.20;99.90;;;;;;5057869;28;20029;-92
2022/01/07 00:58:16;;;;;;;16.60;8.55;;;2.30;99.90;;;;;;5057753;28;20049;-93
2022/01/07 01:00:42;;;;;;;18.00;9.43;;;2.30;99.90;;;;;;5057726;28;20029;-92
2022/01/07 01:03:08;;;;;;;15.57;8.60;;;2.30;99.90;;;;;;5048887;28;20488;-93
2022/01/07 01:05:33;;;;;;;15.30;8.30;;;2.30;99.90;;;;;;5037502;28;20384;-91
2022/01/07 01:07:59;;;;;;;13.07;7.75;;;2.20;99.90;;;;;;5037437;28;20025;-91
2022/01/07 01:10:26;;;;;;;12.23;8.05;;;2.10;99.90;;;;;;5037296;28;20031;-92
2022/01/07 01:12:53;;;;;;;14.65;8.00;;;2.10;99.90;;;;;;5037685;28;20053;-92
2022/01/07 01:15:23;;;;;;;11.43;7.97;;;2.00;99.90;;;;;;5038128;28;20025;-91
2022/01/07 01:17:50;;;;;;;12.93;7.70;;;2.00;99.90;;;;;;5037926;28;20021;-93
2022/01/07 01:20:17;;;;;;;15.38;8.27;;;1.90;99.90;;;;;;5037306;28;20025;-93
2022/01/07 01:22:42;;;;;;;12.95;7.10;;;1.90;99.90;;;;;;5037529;28;20025;-90
2022/01/07 01:25:09;;;;;;;13.35;8.18;;;1.80;99.90;;;;;;5037032;28;20128;-92
2022/01/07 01:27:35;;;;;;;13.23;8.18;;;1.80;99.90;;;;;;5037624;28;20021;-93
2022/01/07 01:30:03;;;;;;;15.15;7.63;;;1.70;99.90;;;;;;5037086;28;20054;-91
2022/01/07 01:32:28;;;;;;;16.45;9.00;;;1.70;99.90;;;;;;5036944;28;20510;-92
2022/01/07 01:34:54;;;;;;;14.55;8.50;;;1.80;99.90;;;;;;5036959;28;20064;-91
2022/01/07 01:37:20;;;;;;;12.73;7.47;;;1.70;99.90;;;;;;5037491;28;20028;-91
2022/01/07 01:39:45;;;;;;;14.68;8.15;;;1.70;99.90;;;;;;5037102;28;20060;-92
2022/01/07 01:42:11;;;;;;;11.35;7.47;;;1.70;99.90;;;;;;5037000;28;20029;-91
2022/01/07 01:44:37;;;;;;;12.90;7.78;;;1.60;99.90;;;;;;5036931;28;20029;-91
2022/01/07 01:47:03;;;;;;;14.10;8.40;;;1.60;99.90;;;;;;5036739;28;20403;-93
2022/01/07 01:49:29;;;;;;;13.98;8.50;;;1.60;99.90;;;;;;5037124;28;20029;-92
2022/01/07 01:51:55;;;;;;;13.65;7.95;;;1.50;99.90;;;;;;5030453;28;20017;-92
2022/01/07 01:54:21;;;;;;;13.68;7.85;;;1.50;99.90;;;;;;5016923;28;20087;-92
2022/01/07 01:56:47;;;;;;;14.82;8.07;;;1.50;99.90;;;;;;5017018;28;20111;-93
2022/01/07 01:59:13;;;;;;;15.15;7.10;;;1.50;99.90;;;;;;5016873;28;20030;-93
2022/01/07 02:01:40;;;;;;;12.95;7.13;;;1.40;99.90;;;;;;5017058;28;20033;-93
2022/01/07 02:04:07;;;;;;;13.10;7.55;;;1.40;99.90;;;;;;5016872;28;20045;-92
2022/01/07 02:06:34;;;;;;;11.23;7.15;;;1.40;99.90;;;;;;4999035;28;20026;-92
2022/01/07 02:09:00;;;;;;;11.18;6.05;;;1.40;99.90;;;;;;4996935;28;20018;-92
2022/01/07 02:11:26;;;;;;;9.57;6.57;;;1.30;99.90;;;;;;4997196;28;20068;-92
2022/01/07 02:13:56;;;;;;;10.13;6.63;;;1.30;99.90;;;;;;4997218;28;20448;-93
2022/01/07 02:16:27;;;;;;;11.23;6.55;;;1.30;99.90;;;;;;4997046;28;20030;-93
2022/01/07 02:18:53;;;;;;;10.02;6.32;;;1.20;99.90;;;;;;4997120;28;20472;-93
2022/01/07 02:21:18;;;;;;;9.82;6.97;;;1.20;99.90;;;;;;4997027;28;20032;-92
2022/01/07 02:23:44;;;;;;;9.55;6.10;;;1.20;99.90;;;;;;4997138;28;20030;-92
2022/01/07 02:26:11;;;;;;;10.05;6.45;;;1.10;99.90;;;;;;4997436;28;20061;-92
2022/01/07 02:28:38;;;;;;;11.32;6.82;;;1.10;99.90;;;;;;4997858;28;20382;-92
2022/01/07 02:31:04;;;;;;;11.18;6.70;;;1.10;99.90;;;;;;4996971;28;20060;-91
2022/01/07 02:33:30;;;;;;;10.25;6.85;;;1.00;99.90;;;;;;4996968;28;20424;-92
2022/01/07 02:35:55;;;;;;;15.38;7.35;;;1.00;99.90;;;;;;4996871;28;20026;-91
2022/01/07 02:38:23;;;;;;;10.23;6.97;;;1.10;99.90;;;;;;4996887;28;20026;-92
2022/01/07 02:40:49;;;;;;;8.85;7.18;;;1.10;99.90;;;;;;4997653;28;20507;-92
2022/01/07 02:43:14;;;;;;;8.02;6.75;;;1.10;99.90;;;;;;4996841;28;20120;-92
2022/01/07 02:45:40;;;;;;;13.25;7.15;;;1.00;99.90;;;;;;4997030;28;20026;-93
2022/01/07 02:48:06;;;;;;;11.35;7.03;;;1.00;99.90;;;;;;4997362;28;20022;-92
2022/01/07 02:50:36;;;;;;;11.05;7.32;;;1.00;99.90;;;;;;4997216;28;20022;-92
2022/01/07 02:53:05;;;;;;;9.00;6.15;;;1.00;99.90;;;;;;4996937;28;20102;-92
2022/01/07 02:55:31;;;;;;;11.57;7.22;;;1.00;99.90;;;;;;4996801;28;20137;-92
2022/01/07 02:57:57;;;;;;;11.20;7.13;;;1.00;99.90;;;;;;4996746;28;20113;-92
2022/01/07 03:00:24;;;;;;;10.85;6.53;;;1.10;99.90;;;;;;4997496;28;20070;-93
2022/01/07 03:02:51;;;;;;;11.07;6.80;;;1.00;99.90;;;;;;4996580;28;20054;-93
2022/01/07 03:05:17;;;;;;;9.93;6.93;;;1.00;99.90;;;;;;4996677;28;20076;-93
2022/01/07 03:07:47;;;;;;;10.48;6.32;;;1.00;99.90;;;;;;4997248;28;20026;-90
2022/01/07 03:10:14;;;;;;;10.60;6.72;;;0.90;99.90;;;;;;4997028;28;20022;-93
2022/01/07 03:12:42;;;;;;;9.93;6.60;;;0.90;99.90;;;;;;5010294;28;20021;-92
2022/01/07 03:15:09;;;;;;;9.98;6.15;;;0.90;99.90;;;;;;5009449;28;20025;-91
2022/01/07 03:17:37;;;;;;;13.63;6.90;;;0.90;99.90;;;;;;5000709;28;20022;-91
2022/01/07 03:20:05;;;;;;;10.50;6.00;;;1.00;99.90;;;;;;5000006;28;20029;-91
2022/01/07 03:22:31;;;;;;;9.18;6.97;;;0.90;99.90;;;;;;4999906;28;20022;-93
2022/01/07 03:24:56;;;;;;;9.40;6.53;;;0.90;99.90;;;;;;4999673;28;20030;-92
2022/01/07 03:27:22;;;;;;;10.90;6.63;;;0.90;99.90;;;;;;5000063;28;20084;-92
2022/01/07 03:29:48;;;;;;;11.68;7.07;;;1.00;99.90;;;;;;5000169;28;20048;-93
2022/01/07 03:32:14;;;;;;;11.05;7.05;;;1.00;99.90;;;;;;4999856;28;20022;-92
2022/01/07 03:34:40;;;;;;;10.98;6.40;;;1.00;99.90;;;;;;4999801;28;20022;-92
2022/01/07 03:37:06;;;;;;;10.23;6.68;;;0.90;99.90;;;;;;4999734;28;20034;-93
2022/01/07 03:39:32;;;;;;;10.50;6.70;;;0.90;99.90;;;;;;4999610;28;20457;-93
2022/01/07 03:41:57;;;;;;;10.20;6.32;;;0.90;99.90;;;;;;5000082;28;20495;-91
2022/01/07 03:44:23;;;;;;;11.02;6.68;;;0.90;99.90;;;;;;4999813;28;20026;-92
2022/01/07 03:46:49;;;;;;;12.00;6.72;;;0.90;99.90;;;;;;4999628;28;20464;-93
2022/01/07 03:49:14;;;;;;;12.18;6.78;;;0.90;99.90;;;;;;4999528;28;20026;-92
2022/01/07 03:51:42;;;;;;;11.45;6.22;;;0.90;99.90;;;;;;4999803;28;20026;-93
2022/01/07 03:54:07;;;;;;;9.70;6.20;;;0.90;99.90;;;;;;4999445;28;20030;-92
2022/01/07 03:56:34;;;;;;;11.40;6.75;;;0.80;99.90;;;;;;5000224;28;20033;-92
2022/01/07 03:59:00;;;;;;;10.07;6.50;;;0.80;99.90;;;;;;4999426;28;20057;-91
2022/01/07 04:01:26;;;;;;;9.52;6.20;;;0.80;99.90;;;;;;4999124;28;20049;-90
2022/01/07 04:03:52;;;;;;;12.15;6.85;;;0.90;99.90;;;;;;4998940;28;20050;-93
2022/01/07 04:06:20;;;;;;;11.10;6.03;;;0.80;99.90;;;;;;4999907;28;20468;-92
2022/01/07 04:08:49;;;;;;;8.57;5.82;;;0.80;99.90;;;;;;4999305;28;20033;-92
2022/01/07 04:11:17;;;;;;;10.60;6.28;;;0.90;99.90;;;;;;4999310;28;20069;-92
2022/01/07 04:13:44;;;;;;;9.32;6.22;;;0.90;99.90;;;;;;4999382;28;20030;-90
2022/01/07 04:16:10;;;;;;;8.13;5.50;;;0.90;99.90;;;;;;4999033;28;20113;-92
2022/01/07 04:18:36;;;;;;;8.43;5.63;;;1.00;99.90;;;;;;4999082;28;20551;-91
2022/01/07 04:21:02;;;;;;;8.93;5.32;;;1.10;99.90;;;;;;4999048;28;20026;-93
2022/01/07 04:23:27;;;;;;;9.73;5.82;;;1.10;99.90;;;;;;5013275;28;20030;-92
2022/01/07 04:25:53;;;;;;;10.93;6.25;;;1.20;99.90;;;;;;5019337;28;20018;-92
2022/01/07 04:28:20;;;;;;;6.75;4.88;;;1.20;99.90;;;;;;5019100;28;20017;-91
2022/01/07 04:30:46;;;;;;;6.68;4.78;;;1.20;99.90;;;;;;5018478;28;20582;-91
2022/01/07 04:33:14;;;;;;;5.97;4.65;;;1.20;99.90;;;;;;5009172;28;20064;-90
2022/01/07 04:35:42;;;;;;;6.60;5.18;;;1.20;99.90;;;;;;4998622;28;20022;-93
2022/01/07 04:38:09;;;;;;;7.78;5.18;;;1.20;99.90;;;;;;4998652;28;20034;-90
2022/01/07 04:40:35;;;;;;;6.07;4.47;;;1.20;99.90;;;;;;4998488;28;20036;-90
2022/01/07 04:43:03;;;;;;;6.95;4.88;;;1.10;99.90;;;;;;4998383;28;20452;-91
2022/01/07 04:45:29;;;;;;;6.90;4.50;;;1.10;99.90;;;;;;5003091;28;20025;-92
2022/01/07 04:47:55;;;;;;;8.40;4.93;;;1.10;99.90;;;;;;5018052;28;20026;-93
2022/01/07 04:50:22;;;;;;;9.25;5.53;;;1.00;99.90;;;;;;5017996;28;20059;-93
2022/01/07 04:52:49;;;;;;;6.28;4.78;;;1.00;99.90;;;;;;5018075;28;20052;-94
2022/01/07 04:55:26;;;;;;;7.28;4.65;;;1.00;99.90;;;;;;5018045;28;20056;-92
2022/01/07 04:57:53;;;;;;;6.68;4.25;;;0.90;99.90;;;;;;5018184;28;20071;-92
2022/01/07 05:00:21;;;;;;;7.65;5.05;;;0.90;99.90;;;;;;5018093;28;20076;-92
2022/01/07 05:02:48;;;;;;;7.45;4.63;;;0.80;99.90;;;;;;5009000;28;20080;-92
2022/01/07 05:05:14;;;;;;;8.73;4.88;;;0.80;99.90;;;;;;4999046;28;20045;-91
2022/01/07 05:07:40;;;;;;;8.82;5.47;;;0.80;99.90;;;;;;4998977;28;20026;-93
2022/01/07 05:10:09;;;;;;;7.47;5.25;;;0.80;99.90;;;;;;4998261;28;20380;-92
2022/01/07 05:12:36;;;;;;;6.38;4.65;;;0.80;99.90;;;;;;4997897;28;20385;-92
2022/01/07 05:15:04;;;;;;;8.25;4.80;;;0.70;99.90;;;;;;4999324;28;20021;-93
2022/01/07 05:17:30;;;;;;;6.32;4.20;;;0.70;99.90;;;;;;4997836;28;20025;-93
2022/01/07 05:19:56;;;;;;;7.28;4.25;;;0.70;99.90;;;;;;4997863;28;20030;-91
2022/01/07 05:22:22;;;;;;;7.57;4.45;;;0.60;99.90;;;;;;5011841;28;20033;-91
2022/01/07 05:24:48;;;;;;;9.02;4.85;;;0.60;99.90;;;;;;5017436;28;20022;-91
2022/01/07 05:27:14;;;;;;;7.20;5.47;;;0.60;99.90;;;;;;5017217;28;20037;-92
2022/01/07 05:29:39;;;;;;;6.25;4.15;;;0.60;99.90;;;;;;5017683;28;20032;-91
2022/01/07 05:32:06;;;;;;;6.35;4.28;;;0.60;99.90;;;;;;5017244;28;20028;-92
2022/01/07 05:34:32;;;;;;;4.63;3.92;;;0.60;99.90;;;;;;5001229;28;20087;-92
2022/01/07 05:36:58;;;;;;;6.93;4.45;;;0.60;99.90;;;;;;4998451;28;20071;-92
2022/01/07 05:39:24;;;;;;;4.95;3.55;;;0.50;99.90;;;;;;4998342;28;20480;-90
2022/01/07 05:41:50;;;;;;;4.03;3.58;;;0.50;99.90;;;;;;4998527;28;20034;-90
2022/01/07 05:44:16;;;;;;;4.82;3.53;;;0.50;99.90;;;;;;4997408;28;20473;-91
2022/01/07 05:46:42;;;;;;;5.25;4.07;;;0.50;99.90;;;;;;4997319;28;20053;-90
2022/01/07 05:49:08;;;;;;;6.15;3.95;;;0.50;99.90;;;;;;4997486;28;20053;-89
2022/01/07 05:51:33;;;;;;;4.53;3.38;;;0.50;99.90;;;;;;4997280;28;20048;-88
2022/01/07 05:53:59;;;;;;;4.13;3.35;;;0.50;99.90;;;;;;5014483;28;20428;-89
2022/01/07 05:56:26;;;;;;;4.45;3.75;;;0.60;99.90;;;;;;5000984;28;20033;-89
2022/01/07 05:58:52;;;;;;;4.90;3.78;;;0.60;99.90;;;;;;4997456;28;20047;-91
2022/01/07 06:01:17;;;;;;;6.90;4.10;;;0.60;99.90;;;;;;5014886;28;20036;-89
2022/01/07 06:03:43;;;;;;;5.68;3.80;;;0.60;99.90;;;;;;5016630;28;20440;-90
2022/01/07 06:06:09;;;;;;;5.70;3.95;;;0.70;99.90;;;;;;5007085;28;20021;-89
2022/01/07 06:08:35;;;;;;;4.25;3.67;;;0.70;99.90;;;;;;4997194;28;20116;-87
2022/01/07 06:11:01;;;;;;;4.32;3.65;;;0.70;99.90;;;;;;4998608;28;20034;-87
2022/01/07 06:13:27;;;;;;;7.07;4.30;;;0.80;99.90;;;;;;5027602;28;20039;-89
2022/01/07 06:15:52;;;;;;;3.88;3.33;;;0.80;99.90;;;;;;4998836;28;20038;-87
2022/01/07 06:18:18;;;;;;;4.28;3.40;;;0.80;99.90;;;;;;5022828;28;20028;-87
2022/01/07 06:20:44;;;;;;;5.50;3.80;;;0.80;99.90;;;;;;5034703;28;20030;-88
2022/01/07 06:23:09;;;;;;;6.65;4.03;;;0.80;99.90;;;;;;4996997;28;20041;-89
2022/01/07 14:27:35;;;;;;;7.90;4.05;;;-0.40;91.50;;;;;;5070678;28;20383;-96
2022/01/07 14:30:04;;;;;;;7.30;3.90;;;-0.40;91.90;;;;;;5050751;28;20483;-95
2022/01/07 14:32:31;;;;;;;7.60;4.25;;;-0.40;92.40;;;;;;5055734;28;20036;-95
2022/01/07 14:34:58;;;;;;;12.13;4.53;;;-0.40;92.70;;;;;;5050800;28;20047;-95
2022/01/07 14:37:29;;;;;;;10.95;5.28;;;-0.40;93.20;;;;;;5050524;28;20029;-95
2022/01/07 14:39:56;;;;;;;7.68;4.22;;;-0.40;92.60;;;;;;5050632;28;20037;-95
2022/01/07 14:42:23;;;;;;;11.88;6.05;;;-0.40;93.50;;;;;;5050469;28;20017;-95
2022/01/07 14:44:49;;;;;;;13.75;7.47;;;-0.30;93.50;;;;;;5049729;28;20075;-95
2022/01/07 14:47:19;;;;;;;14.20;5.68;;;-0.20;93.30;;;;;;5050413;28;20128;-96
2022/01/07 14:49:45;;;;;;;7.72;4.82;;;-0.10;93.70;;;;;;5050300;28;20018;-94
2022/01/07 14:52:11;;;;;;;16.23;8.05;;;-0.10;93.30;;;;;;5050214;28;20030;-94
2022/01/07 14:54:37;;;;;;;24.63;11.10;;;0.00;93.70;;;;;;5050792;28;20025;-96
2022/01/07 14:57:03;;;;;;;21.05;9.27;;;0.00;93.90;;;;;;5050003;28;20174;-94
2022/01/07 14:59:29;;;;;;;19.90;8.73;;;0.00;94.00;;;;;;5050282;28;20026;-94
2022/01/07 15:01:55;;;;;;;24.05;9.27;;;0.00;94.00;;;;;;5050377;28;20025;-94
2022/01/07 15:04:20;;;;;;;30.40;10.88;;;0.00;93.30;;;;;;5050638;28;20116;-96
2022/01/07 15:06:46;;;;;;;26.90;9.18;;;0.00;93.10;;;;;;5049799;28;20530;-95
2022/01/07 15:09:13;;;;;;;26.23;9.70;;;0.00;92.50;;;;;;5049883;28;20068;-95
2022/01/07 15:11:39;;;;;;;24.23;10.10;;;-0.10;92.80;;;;;;5049995;28;20018;-95
2022/01/07 15:14:05;;;;;;;32.30;12.15;;;-0.10;92.90;;;;;;5049829;28;20021;-93
2022/01/07 15:16:36;;;;;;;24.35;11.40;;;-0.20;92.90;;;;;;5050000;28;20028;-95
2022/01/07 15:19:06;;;;;;;22.38;9.27;;;-0.20;92.90;;;;;;5050667;28;20028;-94
2022/01/07 15:21:36;;;;;;;20.75;10.15;;;-0.30;92.70;;;;;;5053301;28;20036;-95
2022/01/07 15:24:03;;;;;;;23.05;10.88;;;-0.40;92.10;;;;;;5050635;28;20036;-94
2022/01/07 15:26:30;;;;;;;17.52;8.20;;;-0.40;92.50;;;;;;5051865;28;20106;-95
2022/01/07 15:28:58;;;;;;;16.00;7.68;;;-0.40;92.70;;;;;;5050780;28;20120;-96
2022/01/07 15:31:24;;;;;;;10.38;5.47;;;-0.50;92.20;;;;;;5050378;28;20049;-96
2022/01/07 15:33:50;;;;;;;5.97;4.10;;;-0.50;92.10;;;;;;5052436;28;20021;-96
2022/01/07 15:36:15;;;;;;;9.27;6.28;;;-0.60;92.20;;;;;;5051705;28;20029;-95
2022/01/07 15:38:41;;;;;;;7.18;4.63;;;-0.60;92.00;;;;;;5041365;28;20040;-96
2022/01/07 15:41:07;;;;;;;8.27;4.05;;;-0.70;92.20;;;;;;5043461;28;20027;-96
2022/01/07 15:44:21;;;;;;;15.77;6.88;;;-0.70;92.20;;;;;;5037819;28;20103;-95
2022/01/07 15:46:47;;;;;;;19.75;7.05;;;-0.70;91.30;;;;;;5037187;28;20099;-92
2022/01/07 15:49:13;;;;;;;20.40;7.60;;;-0.70;91.80;;;;;;5035790;28;20038;-94
2022/01/07 15:51:39;;;;;;;21.33;7.22;;;-0.80;91.40;;;;;;5036052;28;20064;-93
2022/01/07 15:54:05;;;;;;;17.98;6.55;;;-0.80;91.70;;;;;;5035600;28;20434;-93
2022/01/07 15:56:32;;;;;;;13.93;7.40;;;-0.80;91.90;;;;;;5035506;28;20029;-94
2022/01/07 15:58:58;;;;;;;17.98;6.80;;;-0.80;92.20;;;;;;5035521;28;20057;-93
2022/01/07 16:01:24;;;;;;;20.55;9.15;;;-0.80;92.30;;;;;;5036311;28;20028;-94
2022/01/07 16:03:50;;;;;;;31.15;11.95;;;-0.90;92.20;;;;;;5035596;28;20025;-95
2022/01/07 16:06:15;;;;;;;28.63;12.48;;;-1.00;92.60;;;;;;5035483;28;20048;-94
2022/01/07 16:08:41;;;;;;;35.88;12.20;;;-1.00;92.90;;;;;;5035700;28;20030;-93
2022/01/07 16:11:07;;;;;;;28.42;11.07;;;-1.00;93.20;;;;;;5035458;28;20091;-94
2022/01/07 16:13:33;;;;;;;23.38;9.75;;;-1.10;93.40;;;;;;5039224;28;20021;-94
2022/01/07 16:15:59;;;;;;;21.30;9.15;;;-1.10;93.40;;;;;;5036243;28;20136;-92
2022/01/07 16:18:25;;;;;;;22.90;8.55;;;-1.10;93.30;;;;;;5035370;28;20068;-92
2022/01/07 16:20:50;;;;;;;18.17;8.85;;;-1.10;93.10;;;;;;5035325;28;20029;-92
2022/01/07 16:23:17;;;;;;;20.52;10.05;;;-1.10;93.10;;;;;;5035672;28;20472;-92
2022/01/07 16:25:43;;;;;;;20.48;9.10;;;-1.10;93.20;;;;;;5034953;28;20523;-92
2022/01/07 16:28:10;;;;;;;27.30;11.63;;;-1.10;93.50;;;;;;5034933;28;20013;-92
2022/01/07 16:30:36;;;;;;;26.95;11.27;;;-1.10;93.70;;;;;;5034775;28;20095;-92
2022/01/07 16:33:03;;;;;;;27.85;12.90;;;-1.20;93.90;;;;;;5018144;28;20022;-91
2022/01/07 16:35:29;;;;;;;24.98;12.18;;;-1.20;94.10;;;;;;5015124;28;20559;-92
2022/01/07 16:37:55;;;;;;;32.53;13.43;;;-1.30;94.30;;;;;;5015011;28;20095;-92
2022/01/07 16:40:21;;;;;;;29.73;15.35;;;-1.40;94.50;;;;;;5019032;28;20021;-91
2022/01/07 16:42:47;;;;;;;36.95;17.98;;;-1.50;94.80;;;;;;5034999;28;20026;-92
2022/01/07 16:45:14;;;;;;;37.95;15.80;;;-1.60;95.10;;;;;;5034569;28;20052;-93
2022/01/07 16:47:40;;;;;;;38.13;18.02;;;-1.60;95.40;;;;;;5034591;28;20025;-91
2022/01/07 16:50:07;;;;;;;35.92;18.05;;;-1.70;95.60;;;;;;5031022;28;20112;-92
2022/01/07 16:52:33;;;;;;;52.13;20.55;;;-1.70;95.80;;;;;;5034498;28;20025;-92
2022/01/07 16:55:01;;;;;;;48.25;23.08;;;-1.70;96.10;;;;;;5034328;28;20025;-92
2022/01/07 16:57:28;;;;;;;34.90;19.35;;;-1.70;96.20;;;;;;5034909;28;20080;-93
2022/01/07 16:59:54;;;;;;;41.05;19.30;;;-1.70;96.50;;;;;;5034332;28;20024;-92
2022/01/07 17:02:20;;;;;;;42.13;18.77;;;-1.80;96.60;;;;;;5024141;28;20018;-92
2022/01/07 17:04:45;;;;;;;60.58;25.50;;;-1.80;96.90;;;;;;5014508;28;20487;-93
2022/01/07 17:07:11;;;;;;;52.83;20.48;;;-1.80;97.00;;;;;;5014707;28;20030;-92
2022/01/07 17:09:37;;;;;;;52.72;21.48;;;-1.90;97.20;;;;;;5017461;28;20018;-92
2022/01/07 17:12:03;;;;;;;64.65;23.63;;;-1.90;97.50;;;;;;5034424;28;20025;-92
2022/01/07 17:14:28;;;;;;;68.60;27.40;;;-2.00;97.70;;;;;;5034079;28;20032;-92
2022/01/07 17:16:54;;;;;;;70.30;26.23;;;-2.00;98.00;;;;;;5026193;28;20018;-92
2022/01/07 17:22:42;;;;;;;64.07;26.60;;;-2.10;98.60;;;;;;5015935;28;20024;-93
2022/01/07 17:25:10;;;;;;;62.58;27.20;;;-2.10;99.10;;;;;;5033236;28;20030;-93
2022/01/07 17:27:36;;;;;;;63.88;27.17;;;-2.20;99.50;;;;;;5034649;28;20032;-92
2022/01/07 17:31:30;;;;;;;56.72;21.73;;;-2.20;99.50;;;;;;5091768;28;20378;-92
2022/01/07 17:33:55;;;;;;;62.70;23.60;;;-2.30;99.90;;;;;;5087498;28;20036;-93
2022/01/07 17:36:21;;;;;;;50.47;21.45;;;-2.30;99.90;;;;;;5070645;28;20028;-93
2022/01/07 17:38:47;;;;;;;58.92;23.45;;;-2.30;99.90;;;;;;5070374;28;20031;-93
2022/01/07 17:41:13;;;;;;;50.20;21.83;;;-2.30;99.90;;;;;;5070319;28;20021;-93
2022/01/07 17:43:39;;;;;;;55.10;23.60;;;-2.40;99.90;;;;;;5070492;28;20017;-93
2022/01/07 17:46:04;;;;;;;66.78;27.95;;;-2.40;99.90;;;;;;5070713;28;20051;-92
2022/01/07 17:48:30;;;;;;;71.63;28.75;;;-2.40;99.90;;;;;;5070341;28;20027;-92
2022/01/07 17:50:57;;;;;;;62.28;26.38;;;-2.50;99.90;;;;;;5070087;28;20029;-93
2022/01/07 17:53:23;;;;;;;61.35;27.08;;;-2.50;99.90;;;;;;5070147;28;20021;-93
2022/01/07 17:55:49;;;;;;;71.35;27.05;;;-2.50;99.90;;;;;;5070653;28;20171;-93
2022/01/07 17:58:14;;;;;;;68.32;27.85;;;-2.50;99.90;;;;;;5070118;28;20075;-92
2022/01/07 18:00:40;;;;;;;69.55;29.90;;;-2.60;99.90;;;;;;5086418;28;20039;-93
2022/01/07 18:03:06;;;;;;;69.68;28.58;;;-2.60;99.90;;;;;;5082259;28;20079;-90
2022/01/07 18:05:33;;;;;;;83.40;35.60;;;-2.60;99.90;;;;;;5070569;28;20021;-95
2022/01/07 18:07:59;;;;;;;77.22;34.53;;;-2.50;99.90;;;;;;5064229;28;20029;-92
2022/01/07 18:10:25;;;;;;;94.82;34.83;;;-2.40;99.90;;;;;;5089116;28;20034;-92
2022/01/07 18:12:50;;;;;;;75.70;34.47;;;-2.30;99.90;;;;;;5112194;28;20020;-92
2022/01/07 18:15:16;;;;;;;83.05;35.88;;;-2.20;99.90;;;;;;5100884;28;20016;-91
2022/01/07 18:17:42;;;;;;;86.00;38.92;;;-2.20;99.90;;;;;;5090385;28;20028;-91
2022/01/07 18:20:11;;;;;;;78.18;34.40;;;-2.10;99.90;;;;;;5090038;28;20063;-93
2022/01/07 18:22:37;;;;;;;71.53;31.15;;;-2.00;99.90;;;;;;5089674;28;20056;-94
2022/01/07 18:25:14;;;;;;;70.07;27.95;;;-2.10;99.90;;;;;;5090517;28;20413;-94
2022/01/07 18:27:40;;;;;;;64.10;27.15;;;-2.10;99.90;;;;;;5090022;28;20024;-94
2022/01/07 18:30:07;;;;;;;60.92;24.02;;;-2.30;99.90;;;;;;5089595;28;20051;-93
2022/01/07 18:32:33;;;;;;;42.53;17.88;;;-2.40;99.90;;;;;;5089407;28;20056;-94
2022/01/07 18:34:58;;;;;;;48.40;18.55;;;-2.40;99.90;;;;;;5089637;28;20044;-93
2022/01/07 18:37:24;;;;;;;42.90;18.90;;;-2.50;99.90;;;;;;5069260;28;20455;-94
2022/01/07 18:39:52;;;;;;;49.05;19.88;;;-2.60;99.90;;;;;;5069472;28;20028;-93
2022/01/07 18:42:21;;;;;;;43.20;18.15;;;-2.70;99.90;;;;;;5058943;28;20102;-92
2022/01/07 18:44:47;;;;;;;48.00;20.67;;;-2.70;99.90;;;;;;5055918;28;20482;-94
2022/01/07 18:47:13;;;;;;;41.58;19.63;;;-2.70;99.90;;;;;;5056035;28;20037;-93
2022/01/07 18:49:44;;;;;;;51.15;20.10;;;-2.80;99.90;;;;;;5055978;28;20031;-93
2022/01/07 18:52:11;;;;;;;48.50;19.30;;;-2.90;99.90;;;;;;5055802;28;20025;-94
2022/01/07 18:54:37;;;;;;;48.67;18.95;;;-2.80;99.90;;;;;;5066189;28;20023;-93
2022/01/07 18:57:03;;;;;;;55.60;21.80;;;-2.90;99.90;;;;;;5088665;28;20025;-94
2022/01/07 18:59:29;;;;;;;53.05;21.05;;;-2.90;99.90;;;;;;5075684;28;20024;-93
2022/01/07 19:01:55;;;;;;;59.03;21.60;;;-2.90;99.90;;;;;;5075095;28;20090;-93
2022/01/07 19:04:21;;;;;;;58.78;22.83;;;-3.00;99.90;;;;;;5055978;28;20033;-93
2022/01/07 19:06:46;;;;;;;55.63;22.85;;;-2.90;99.90;;;;;;5055966;28;20033;-93
2022/01/07 19:09:12;;;;;;;51.25;22.20;;;-3.00;99.90;;;;;;5055335;28;20361;-93
2022/01/07 19:11:39;;;;;;;50.90;22.35;;;-3.00;99.90;;;;;;5055524;28;20017;-94
2022/01/07 19:14:06;;;;;;;60.22;24.65;;;-3.00;99.90;;;;;;5055420;28;20029;-93
2022/01/07 19:16:32;;;;;;;52.00;22.15;;;-3.00;99.90;;;;;;5055519;28;20032;-94
2022/01/07 19:18:59;;;;;;;42.53;19.20;;;-3.10;99.90;;;;;;5055309;28;20112;-94
2022/01/07 19:21:25;;;;;;;36.85;16.50;;;-3.10;99.90;;;;;;5055328;28;20130;-95
2022/01/07 19:23:51;;;;;;;33.30;14.82;;;-3.10;99.90;;;;;;5055165;28;20503;-95
2022/01/07 19:26:17;;;;;;;21.33;10.98;;;-3.10;99.90;;;;;;5055413;28;20036;-94
2022/01/07 19:28:43;;;;;;;21.25;10.25;;;-3.10;99.90;;;;;;5056070;28;20136;-94
2022/01/07 19:31:08;;;;;;;16.80;8.82;;;-3.10;99.90;;;;;;5055213;28;20443;-94
2022/01/07 19:33:35;;;;;;;16.83;8.10;;;-3.00;99.90;;;;;;5055047;28;20020;-95
2022/01/07 19:36:00;;;;;;;18.50;8.73;;;-3.00;99.90;;;;;;5055009;28;20144;-94
2022/01/07 19:38:26;;;;;;;25.05;15.07;;;-2.90;99.90;;;;;;5055920;28;20060;-94
2022/01/07 19:40:53;;;;;;;17.08;9.77;;;-2.90;99.90;;;;;;5055029;28;20029;-95
2022/01/07 19:43:19;;;;;;;16.67;8.95;;;-2.90;99.90;;;;;;5054984;28;20033;-95
2022/01/07 19:45:46;;;;;;;16.02;9.35;;;-2.90;99.90;;;;;;5055759;28;20056;-95
2022/01/07 19:48:12;;;;;;;19.52;9.77;;;-2.80;99.90;;;;;;5055272;28;20090;-94
2022/01/07 19:50:38;;;;;;;19.90;9.55;;;-2.90;99.90;;;;;;5054695;28;20036;-95
2022/01/07 19:53:07;;;;;;;20.52;10.27;;;-2.80;99.90;;;;;;5053740;28;20036;-94
2022/01/07 19:55:33;;;;;;;28.13;12.10;;;-2.80;99.90;;;;;;5055157;28;20447;-94
2022/01/07 19:57:58;;;;;;;33.53;15.50;;;-2.80;99.90;;;;;;5055255;28;20124;-96
2022/01/07 20:00:24;;;;;;;27.65;12.95;;;-2.80;99.90;;;;;;5055698;28;20032;-94
2022/01/07 20:02:50;;;;;;;29.17;13.70;;;-2.70;99.90;;;;;;5054582;28;20148;-95
2022/01/07 20:05:16;;;;;;;23.75;11.73;;;-2.70;99.90;;;;;;5054448;28;20033;-94
2022/01/07 20:07:42;;;;;;;25.40;13.82;;;-2.60;99.90;;;;;;5054499;28;20380;-95
2022/01/07 20:10:12;;;;;;;33.30;18.42;;;-2.60;99.90;;;;;;5054765;28;20028;-94
2022/01/07 20:12:39;;;;;;;22.77;12.40;;;-2.50;99.90;;;;;;5054547;28;20025;-94
2022/01/07 20:15:05;;;;;;;24.42;12.88;;;-2.50;99.90;;;;;;5054366;28;20029;-94
2022/01/07 20:17:31;;;;;;;31.80;14.43;;;-2.60;99.90;;;;;;5054313;28;20025;-94
2022/01/07 20:19:56;;;;;;;21.88;11.43;;;-2.60;99.90;;;;;;5054235;28;20063;-95
2022/01/07 20:22:22;;;;;;;25.27;10.77;;;-2.60;99.90;;;;;;5054199;28;20028;-95
2022/01/07 20:24:48;;;;;;;24.35;11.43;;;-2.70;99.90;;;;;;5054051;28;20025;-95
2022/01/07 20:27:14;;;;;;;27.17;11.95;;;-2.70;99.90;;;;;;5054150;28;20120;-95
2022/01/07 20:29:40;;;;;;;22.80;11.57;;;-2.90;99.90;;;;;;5053921;28;20111;-93
2022/01/07 20:32:06;;;;;;;40.92;18.20;;;-2.90;99.90;;;;;;5054585;28;20021;-91
2022/01/07 20:34:32;;;;;;;53.60;23.25;;;-3.00;99.90;;;;;;5055011;28;20032;-88
2022/01/07 20:36:58;;;;;;;71.78;35.08;;;-3.00;99.90;;;;;;5054740;28;20021;-94
2022/01/07 20:39:23;;;;;;;46.05;21.55;;;-3.00;99.90;;;;;;5053933;28;20057;-93
2022/01/07 20:41:49;;;;;;;46.35;23.15;;;-3.00;99.90;;;;;;5054115;28;20032;-93
2022/01/07 20:44:17;;;;;;;61.70;27.35;;;-3.10;99.90;;;;;;5064251;28;20056;-92